sensor_id;sensor_type;location;lat;lon;timestamp;pressure;altitude;pressure_sealevel;temperature;humidity
59435;BME280;45241;49.768;8.636;2022-09-12T00:00:50;100303.41;;;21.10;76.00
59435;BME280;45241;49.768;8.636;2022-09-12T00:03:16;100303.78;;;20.43;78.03
59435;BME280;45241;49.768;8.636;2022-09-12T00:05:44;100299.16;;;20.44;78.26
59435;BME280;45241;49.768;8.636;2022-09-12T00:08:11;100298.59;;;20.20;78.90
59435;BME280;45241;49.768;8.636;2022-09-12T00:10:39;100300.94;;;19.73;81.84
59435;BME280;45241;49.768;8.636;2022-09-12T00:13:05;100292.59;;;19.46;82.47
59435;BME280;45241;49.768;8.636;2022-09-12T00:15:31;100300.19;;;18.13;89.78
59435;BME280;45241;49.768;8.636;2022-09-12T00:17:56;100298.97;;;19.51;82.91
59435;BME280;45241;49.768;8.636;2022-09-12T00:20:21;100300.81;;;19.84;80.98
59435;BME280;45241;49.768;8.636;2022-09-12T00:22:46;100291.22;;;19.43;81.26
59435;BME280;45241;49.768;8.636;2022-09-12T00:25:12;100292.91;;;20.00;80.03
59435;BME280;45241;49.768;8.636;2022-09-12T00:27:37;100289.81;;;19.74;80.51
59435;BME280;45241;49.768;8.636;2022-09-12T00:30:03;100290.97;;;19.78;80.10
59435;BME280;45241;49.768;8.636;2022-09-12T00:32:28;100291.03;;;19.83;79.35
59435;BME280;45241;49.768;8.636;2022-09-12T00:34:53;100295.38;;;20.01;78.87
59435;BME280;45241;49.768;8.636;2022-09-12T00:37:18;100287.72;;;20.20;77.52
59435;BME280;45241;49.768;8.636;2022-09-12T00:39:44;100289.81;;;20.13;77.84
59435;BME280;45241;49.768;8.636;2022-09-12T00:42:10;100289.22;;;19.89;78.72
59435;BME280;45241;49.768;8.636;2022-09-12T00:47:13;100291.22;;;19.77;79.03
59435;BME280;45241;49.768;8.636;2022-09-12T00:52:05;100287.00;;;17.58;93.59
59435;BME280;45241;49.768;8.636;2022-09-12T00:54:38;100294.91;;;18.46;88.20
59435;BME280;45241;49.768;8.636;2022-09-12T00:57:06;100291.69;;;19.06;83.61
59435;BME280;45241;49.768;8.636;2022-09-12T00:59:35;100291.63;;;18.73;84.09
59435;BME280;45241;49.768;8.636;2022-09-12T01:02:01;100289.22;;;19.05;83.22
59435;BME280;45241;49.768;8.636;2022-09-12T01:04:27;100285.84;;;19.65;79.50
59435;BME280;45241;49.768;8.636;2022-09-12T01:06:54;100285.88;;;20.04;78.63
59435;BME280;45241;49.768;8.636;2022-09-12T01:09:21;100294.84;;;19.49;79.61
59435;BME280;45241;49.768;8.636;2022-09-12T01:11:47;100294.09;;;19.20;80.93
59435;BME280;45241;49.768;8.636;2022-09-12T01:14:13;100301.41;;;18.86;82.39
59435;BME280;45241;49.768;8.636;2022-09-12T01:16:39;100287.50;;;18.70;83.38
59435;BME280;45241;49.768;8.636;2022-09-12T01:19:23;100287.00;;;19.02;81.91
59435;BME280;45241;49.768;8.636;2022-09-12T01:27:03;100285.91;;;18.86;81.45
59435;BME280;45241;49.768;8.636;2022-09-12T01:34:59;100270.97;;;19.17;80.00
59435;BME280;45241;49.768;8.636;2022-09-12T01:37:30;100271.84;;;19.06;80.81
59435;BME280;45241;49.768;8.636;2022-09-12T01:40:01;100276.28;;;17.86;86.70
59435;BME280;45241;49.768;8.636;2022-09-12T01:42:39;100277.31;;;18.77;82.05
59435;BME280;45241;49.768;8.636;2022-09-12T01:47:41;100269.56;;;18.41;84.85
59435;BME280;45241;49.768;8.636;2022-09-12T01:50:14;100281.31;;;18.58;83.63
59435;BME280;45241;49.768;8.636;2022-09-12T01:52:43;100273.19;;;18.75;81.86
59435;BME280;45241;49.768;8.636;2022-09-12T01:55:18;100264.38;;;18.68;81.95
59435;BME280;45241;49.768;8.636;2022-09-12T01:57:51;100265.94;;;19.09;80.23
59435;BME280;45241;49.768;8.636;2022-09-12T02:00:18;100265.16;;;18.52;81.90
59435;BME280;45241;49.768;8.636;2022-09-12T02:02:48;100260.06;;;18.55;82.14
59435;BME280;45241;49.768;8.636;2022-09-12T02:05:32;100263.16;;;18.47;82.81
59435;BME280;45241;49.768;8.636;2022-09-12T02:08:03;100251.94;;;19.00;81.27
59435;BME280;45241;49.768;8.636;2022-09-12T02:10:31;100256.56;;;19.00;79.69
59435;BME280;45241;49.768;8.636;2022-09-12T02:15:26;100247.25;;;18.96;80.24
59435;BME280;45241;49.768;8.636;2022-09-12T02:17:52;100246.97;;;18.81;81.23
59435;BME280;45241;49.768;8.636;2022-09-12T02:20:24;100244.19;;;18.92;80.44
59435;BME280;45241;49.768;8.636;2022-09-12T02:22:50;100254.91;;;18.82;80.55
59435;BME280;45241;49.768;8.636;2022-09-12T02:25:17;100252.16;;;18.54;81.66
59435;BME280;45241;49.768;8.636;2022-09-12T02:27:44;100250.22;;;18.66;81.85
59435;BME280;45241;49.768;8.636;2022-09-12T02:30:11;100242.88;;;19.12;79.01
59435;BME280;45241;49.768;8.636;2022-09-12T02:32:42;100243.88;;;19.22;78.71
59435;BME280;45241;49.768;8.636;2022-09-12T02:35:14;100244.34;;;19.53;77.01
59435;BME280;45241;49.768;8.636;2022-09-12T02:40:22;100242.50;;;18.74;81.45
59435;BME280;45241;49.768;8.636;2022-09-12T02:42:48;100242.28;;;18.93;80.00
59435;BME280;45241;49.768;8.636;2022-09-12T02:45:13;100244.19;;;18.92;80.12
59435;BME280;45241;49.768;8.636;2022-09-12T02:47:41;100239.91;;;19.13;78.46
59435;BME280;45241;49.768;8.636;2022-09-12T02:50:08;100236.47;;;19.01;79.68
59435;BME280;45241;49.768;8.636;2022-09-12T02:52:34;100233.50;;;19.02;79.10
59435;BME280;45241;49.768;8.636;2022-09-12T02:55:00;100240.44;;;19.10;78.96
59435;BME280;45241;49.768;8.636;2022-09-12T02:57:25;100239.13;;;18.39;81.12
59435;BME280;45241;49.768;8.636;2022-09-12T02:59:52;100231.50;;;18.24;83.57
59435;BME280;45241;49.768;8.636;2022-09-12T03:05:11;100233.50;;;18.29;82.99
59435;BME280;45241;49.768;8.636;2022-09-12T03:10:23;100228.34;;;18.72;80.13
59435;BME280;45241;49.768;8.636;2022-09-12T03:25:50;100228.94;;;18.17;81.89
59435;BME280;45241;49.768;8.636;2022-09-12T03:28:18;100227.03;;;18.30;81.60
59435;BME280;45241;49.768;8.636;2022-09-12T03:30:44;100230.72;;;18.40;80.75
59435;BME280;45241;49.768;8.636;2022-09-12T03:33:11;100231.16;;;18.49;79.60
59435;BME280;45241;49.768;8.636;2022-09-12T03:35:36;100235.81;;;18.37;80.64
59435;BME280;45241;49.768;8.636;2022-09-12T03:38:02;100226.09;;;18.24;81.44
59435;BME280;45241;49.768;8.636;2022-09-12T03:40:27;100224.78;;;18.27;81.43
59435;BME280;45241;49.768;8.636;2022-09-12T03:42:52;100228.16;;;18.05;82.47
59435;BME280;45241;49.768;8.636;2022-09-12T03:45:17;100225.88;;;18.14;81.13
59435;BME280;45241;49.768;8.636;2022-09-12T03:47:42;100226.69;;;18.14;81.06
59435;BME280;45241;49.768;8.636;2022-09-12T03:50:08;100227.63;;;18.20;81.11
59435;BME280;45241;49.768;8.636;2022-09-12T03:52:33;100223.66;;;18.11;81.10
59435;BME280;45241;49.768;8.636;2022-09-12T03:54:58;100231.94;;;18.04;81.60
59435;BME280;45241;49.768;8.636;2022-09-12T03:57:23;100221.72;;;18.23;80.63
59435;BME280;45241;49.768;8.636;2022-09-12T03:59:49;100227.31;;;18.45;79.53
59435;BME280;45241;49.768;8.636;2022-09-12T04:02:14;100217.53;;;18.44;79.36
59435;BME280;45241;49.768;8.636;2022-09-12T04:04:40;100215.72;;;18.95;76.62
59435;BME280;45241;49.768;8.636;2022-09-12T04:07:06;100218.31;;;18.73;78.17
59435;BME280;45241;49.768;8.636;2022-09-12T04:09:31;100215.91;;;18.31;80.27
59435;BME280;45241;49.768;8.636;2022-09-12T04:11:57;100214.19;;;18.13;80.65
59435;BME280;45241;49.768;8.636;2022-09-12T04:14:22;100222.03;;;17.98;81.68
59435;BME280;45241;49.768;8.636;2022-09-12T04:16:47;100222.25;;;18.08;80.67
59435;BME280;45241;49.768;8.636;2022-09-12T04:19:12;100223.19;;;18.02;81.55
59435;BME280;45241;49.768;8.636;2022-09-12T04:21:37;100228.44;;;17.92;81.52
59435;BME280;45241;49.768;8.636;2022-09-12T04:24:04;100223.84;;;18.21;80.09
59435;BME280;45241;49.768;8.636;2022-09-12T04:26:29;100224.31;;;18.30;79.87
59435;BME280;45241;49.768;8.636;2022-09-12T04:28:55;100237.94;;;18.06;80.61
59435;BME280;45241;49.768;8.636;2022-09-12T04:31:21;100237.16;;;17.94;81.88
59435;BME280;45241;49.768;8.636;2022-09-12T04:33:52;100236.00;;;17.67;81.95
59435;BME280;45241;49.768;8.636;2022-09-12T04:36:17;100234.34;;;17.30;85.97
59435;BME280;45241;49.768;8.636;2022-09-12T04:38:43;100230.47;;;17.26;85.72
59435;BME280;45241;49.768;8.636;2022-09-12T04:41:15;100233.78;;;17.40;84.63
59435;BME280;45241;49.768;8.636;2022-09-12T04:43:40;100232.81;;;17.81;82.79
59435;BME280;45241;49.768;8.636;2022-09-12T04:46:06;100232.81;;;17.81;81.22
59435;BME280;45241;49.768;8.636;2022-09-12T04:48:31;100238.22;;;17.70;81.95
59435;BME280;45241;49.768;8.636;2022-09-12T04:51:05;100235.75;;;17.92;80.51
59435;BME280;45241;49.768;8.636;2022-09-12T04:53:30;100231.16;;;17.33;83.34
59435;BME280;45241;49.768;8.636;2022-09-12T04:56:00;100231.75;;;17.24;84.73
59435;BME280;45241;49.768;8.636;2022-09-12T04:58:25;100237.03;;;17.89;81.90
59435;BME280;45241;49.768;8.636;2022-09-12T05:00:50;100229.47;;;18.03;81.27
59435;BME280;45241;49.768;8.636;2022-09-12T05:03:15;100229.91;;;16.83;85.69
59435;BME280;45241;49.768;8.636;2022-09-12T05:05:41;100228.34;;;17.40;84.07
59435;BME280;45241;49.768;8.636;2022-09-12T05:08:06;100229.03;;;17.59;82.22
59435;BME280;45241;49.768;8.636;2022-09-12T05:10:32;100232.56;;;17.36;83.65
59435;BME280;45241;49.768;8.636;2022-09-12T05:12:57;100233.16;;;17.61;82.54
59435;BME280;45241;49.768;8.636;2022-09-12T05:15:22;100233.50;;;17.77;81.47
59435;BME280;45241;49.768;8.636;2022-09-12T05:17:48;100234.81;;;17.16;84.66
59435;BME280;45241;49.768;8.636;2022-09-12T05:20:14;100235.06;;;17.26;83.37
59435;BME280;45241;49.768;8.636;2022-09-12T05:22:41;100231.41;;;17.55;82.58
59435;BME280;45241;49.768;8.636;2022-09-12T05:25:06;100238.72;;;17.55;82.49
59435;BME280;45241;49.768;8.636;2022-09-12T05:27:32;100240.09;;;17.22;83.54
59435;BME280;45241;49.768;8.636;2022-09-12T05:29:57;100239.28;;;17.10;85.11
59435;BME280;45241;49.768;8.636;2022-09-12T05:32:23;100232.44;;;17.08;85.27
59435;BME280;45241;49.768;8.636;2022-09-12T05:34:48;100230.66;;;17.72;82.07
59435;BME280;45241;49.768;8.636;2022-09-12T05:37:13;100243.28;;;17.89;81.32
59435;BME280;45241;49.768;8.636;2022-09-12T05:39:38;100232.94;;;17.51;82.98
59435;BME280;45241;49.768;8.636;2022-09-12T05:42:04;100234.22;;;17.84;81.71
59435;BME280;45241;49.768;8.636;2022-09-12T05:44:30;100237.97;;;17.24;84.88
59435;BME280;45241;49.768;8.636;2022-09-12T05:46:55;100242.97;;;17.27;84.86
59435;BME280;45241;49.768;8.636;2022-09-12T05:49:20;100256.88;;;17.78;82.73
59435;BME280;45241;49.768;8.636;2022-09-12T05:51:45;100245.38;;;17.99;82.53
59435;BME280;45241;49.768;8.636;2022-09-12T05:54:12;100243.84;;;18.03;82.29
59435;BME280;45241;49.768;8.636;2022-09-12T05:56:39;100242.06;;;18.37;81.10
59435;BME280;45241;49.768;8.636;2022-09-12T05:59:25;100239.50;;;18.59;80.75
59435;BME280;45241;49.768;8.636;2022-09-12T06:01:50;100240.59;;;18.58;80.89
59435;BME280;45241;49.768;8.636;2022-09-12T06:04:16;100247.72;;;18.47;82.34
59435;BME280;45241;49.768;8.636;2022-09-12T06:06:43;100242.66;;;18.39;83.41
59435;BME280;45241;49.768;8.636;2022-09-12T06:09:09;100244.13;;;18.30;83.95
59435;BME280;45241;49.768;8.636;2022-09-12T06:11:35;100247.25;;;18.39;84.23
59435;BME280;45241;49.768;8.636;2022-09-12T06:14:01;100237.38;;;18.78;82.73
59435;BME280;45241;49.768;8.636;2022-09-12T06:16:27;100248.31;;;18.66;83.61
59435;BME280;45241;49.768;8.636;2022-09-12T06:18:59;100241.59;;;18.40;86.59
59435;BME280;45241;49.768;8.636;2022-09-12T06:21:25;100238.28;;;18.95;83.11
59435;BME280;45241;49.768;8.636;2022-09-12T06:23:52;100232.84;;;18.95;84.02
59435;BME280;45241;49.768;8.636;2022-09-12T06:26:17;100233.00;;;19.05;83.28
59435;BME280;45241;49.768;8.636;2022-09-12T06:28:45;100225.38;;;19.75;79.34
59435;BME280;45241;49.768;8.636;2022-09-12T06:31:12;100227.91;;;19.81;79.20
59435;BME280;45241;49.768;8.636;2022-09-12T06:33:39;100220.44;;;20.15;78.23
59435;BME280;45241;49.768;8.636;2022-09-12T06:36:05;100220.50;;;20.47;79.04
59435;BME280;45241;49.768;8.636;2022-09-12T06:38:31;100215.13;;;20.79;81.08
59435;BME280;45241;49.768;8.636;2022-09-12T06:40:56;100215.56;;;20.98;80.78
59435;BME280;45241;49.768;8.636;2022-09-12T06:43:22;100214.66;;;21.25;78.65
59435;BME280;45241;49.768;8.636;2022-09-12T06:45:48;100214.84;;;21.50;78.37
59435;BME280;45241;49.768;8.636;2022-09-12T06:48:13;100210.91;;;21.68;78.15
59435;BME280;45241;49.768;8.636;2022-09-12T06:50:39;100216.94;;;21.80;77.91
59435;BME280;45241;49.768;8.636;2022-09-12T06:53:04;100218.81;;;21.69;78.54
59435;BME280;45241;49.768;8.636;2022-09-12T06:55:29;100219.50;;;22.02;77.12
59435;BME280;45241;49.768;8.636;2022-09-12T06:57:54;100216.38;;;21.78;78.06
59435;BME280;45241;49.768;8.636;2022-09-12T07:00:19;100218.22;;;21.62;78.66
59435;BME280;45241;49.768;8.636;2022-09-12T07:02:45;100220.09;;;22.14;77.58
59435;BME280;45241;49.768;8.636;2022-09-12T07:05:10;100219.69;;;22.48;76.16
59435;BME280;45241;49.768;8.636;2022-09-12T07:07:35;100222.44;;;22.73;75.57
59435;BME280;45241;49.768;8.636;2022-09-12T07:10:00;100219.44;;;22.95;74.75
59435;BME280;45241;49.768;8.636;2022-09-12T07:12:29;100214.00;;;23.21;74.26
59435;BME280;45241;49.768;8.636;2022-09-12T07:14:54;100216.69;;;23.10;74.06
59435;BME280;45241;49.768;8.636;2022-09-12T07:17:19;100209.03;;;23.53;72.60
59435;BME280;45241;49.768;8.636;2022-09-12T07:19:45;100204.34;;;23.59;72.77
59435;BME280;45241;49.768;8.636;2022-09-12T07:22:10;100219.13;;;23.63;72.51
59435;BME280;45241;49.768;8.636;2022-09-12T07:24:35;100209.78;;;23.79;72.81
59435;BME280;45241;49.768;8.636;2022-09-12T07:27:01;100215.72;;;22.18;78.35
59435;BME280;45241;49.768;8.636;2022-09-12T07:29:26;100219.69;;;22.68;74.30
59435;BME280;45241;49.768;8.636;2022-09-12T07:31:51;100212.63;;;21.89;77.82
59435;BME280;45241;49.768;8.636;2022-09-12T07:34:17;100208.22;;;23.42;74.48
59435;BME280;45241;49.768;8.636;2022-09-12T07:36:42;100210.28;;;23.96;72.44
59435;BME280;45241;49.768;8.636;2022-09-12T07:39:07;100200.81;;;23.63;71.92
59435;BME280;45241;49.768;8.636;2022-09-12T07:41:33;100210.59;;;24.44;71.01
59435;BME280;45241;49.768;8.636;2022-09-12T07:43:59;100201.28;;;23.75;72.50
59435;BME280;45241;49.768;8.636;2022-09-12T07:46:25;100212.56;;;24.33;71.71
59435;BME280;45241;49.768;8.636;2022-09-12T07:48:51;100214.78;;;22.96;75.72
59435;BME280;45241;49.768;8.636;2022-09-12T07:51:17;100221.38;;;22.89;76.79
59435;BME280;45241;49.768;8.636;2022-09-12T07:53:43;100214.72;;;22.45;78.80
59435;BME280;45241;49.768;8.636;2022-09-12T07:56:08;100212.06;;;22.96;77.10
59435;BME280;45241;49.768;8.636;2022-09-12T07:58:34;100204.66;;;22.50;80.19
59435;BME280;45241;49.768;8.636;2022-09-12T08:01:04;100211.78;;;22.67;80.34
59435;BME280;45241;49.768;8.636;2022-09-12T08:03:29;100223.09;;;22.13;83.26
59435;BME280;45241;49.768;8.636;2022-09-12T08:06:01;100215.75;;;22.28;82.86
59435;BME280;45241;49.768;8.636;2022-09-12T08:08:27;100225.81;;;21.55;86.57
59435;BME280;45241;49.768;8.636;2022-09-12T08:10:55;100228.03;;;22.31;83.84
59435;BME280;45241;49.768;8.636;2022-09-12T08:13:21;100225.75;;;21.97;84.14
59435;BME280;45241;49.768;8.636;2022-09-12T08:15:46;100225.88;;;22.28;81.96
59435;BME280;45241;49.768;8.636;2022-09-12T08:18:11;100223.00;;;22.75;78.83
59435;BME280;45241;49.768;8.636;2022-09-12T08:20:36;100229.53;;;23.10;76.88
59435;BME280;45241;49.768;8.636;2022-09-12T08:23:02;100223.28;;;23.14;76.97
59435;BME280;45241;49.768;8.636;2022-09-12T08:25:27;100232.16;;;22.28;80.75
59435;BME280;45241;49.768;8.636;2022-09-12T08:27:52;100236.34;;;21.84;83.95
59435;BME280;45241;49.768;8.636;2022-09-12T08:30:18;100232.00;;;22.66;79.91
59435;BME280;45241;49.768;8.636;2022-09-12T08:32:43;100229.50;;;23.66;73.41
59435;BME280;45241;49.768;8.636;2022-09-12T08:35:08;100229.25;;;22.61;80.38
59435;BME280;45241;49.768;8.636;2022-09-12T08:37:33;100237.63;;;22.34;80.80
59435;BME280;45241;49.768;8.636;2022-09-12T08:39:59;100222.72;;;22.62;81.05
59435;BME280;45241;49.768;8.636;2022-09-12T08:42:32;100222.59;;;22.21;81.77
59435;BME280;45241;49.768;8.636;2022-09-12T08:45:20;100221.81;;;23.73;73.38
59435;BME280;45241;49.768;8.636;2022-09-12T08:47:47;100216.16;;;24.29;69.77
59435;BME280;45241;49.768;8.636;2022-09-12T08:50:14;100221.25;;;24.41;69.68
59435;BME280;45241;49.768;8.636;2022-09-12T08:55:33;100216.69;;;22.80;80.22
59435;BME280;45241;49.768;8.636;2022-09-12T08:58:18;100218.06;;;22.93;79.10
59435;BME280;45241;49.768;8.636;2022-09-12T09:03:15;100218.09;;;23.23;78.05
59435;BME280;45241;49.768;8.636;2022-09-12T09:05:50;100216.94;;;23.60;77.26
59435;BME280;45241;49.768;8.636;2022-09-12T09:16:31;100213.63;;;23.68;76.89
59435;BME280;45241;49.768;8.636;2022-09-12T09:19:02;100209.03;;;23.53;79.05
59435;BME280;45241;49.768;8.636;2022-09-12T09:21:34;100204.81;;;23.86;75.35
59435;BME280;45241;49.768;8.636;2022-09-12T09:24:03;100212.47;;;23.89;75.78
59435;BME280;45241;49.768;8.636;2022-09-12T09:26:32;100215.44;;;24.52;73.48
59435;BME280;45241;49.768;8.636;2022-09-12T09:29:10;100219.16;;;23.53;76.13
59435;BME280;45241;49.768;8.636;2022-09-12T09:31:37;100210.34;;;23.76;76.14
59435;BME280;45241;49.768;8.636;2022-09-12T09:34:12;100225.19;;;24.24;73.53
59435;BME280;45241;49.768;8.636;2022-09-12T09:41:56;100225.44;;;24.33;70.19
59435;BME280;45241;49.768;8.636;2022-09-12T09:44:27;100222.31;;;24.94;69.33
59435;BME280;45241;49.768;8.636;2022-09-12T09:46:53;100213.06;;;23.76;72.24
59435;BME280;45241;49.768;8.636;2022-09-12T09:49:19;100211.19;;;24.80;71.00
59435;BME280;45241;49.768;8.636;2022-09-12T09:51:45;100213.28;;;23.95;69.41
59435;BME280;45241;49.768;8.636;2022-09-12T09:54:19;100202.56;;;24.92;67.03
59435;BME280;45241;49.768;8.636;2022-09-12T09:56:45;100206.69;;;24.50;67.18
59435;BME280;45241;49.768;8.636;2022-09-12T09:59:15;100201.09;;;25.05;67.29
59435;BME280;45241;49.768;8.636;2022-09-12T10:01:46;100197.47;;;25.91;65.01
59435;BME280;45241;49.768;8.636;2022-09-12T10:04:16;100196.13;;;25.65;62.54
59435;BME280;45241;49.768;8.636;2022-09-12T10:06:41;100193.00;;;26.19;62.01
59435;BME280;45241;49.768;8.636;2022-09-12T10:11:36;100193.41;;;25.65;62.15
59435;BME280;45241;49.768;8.636;2022-09-12T10:14:02;100201.44;;;25.80;61.28
59435;BME280;45241;49.768;8.636;2022-09-12T10:16:46;100192.34;;;26.84;61.64
59435;BME280;45241;49.768;8.636;2022-09-12T10:19:18;100192.47;;;25.74;60.64
59435;BME280;45241;49.768;8.636;2022-09-12T10:21:46;100186.66;;;26.24;62.00
59435;BME280;45241;49.768;8.636;2022-09-12T10:26:42;100190.56;;;26.55;59.67
59435;BME280;45241;49.768;8.636;2022-09-12T10:29:15;100194.97;;;26.37;61.83
59435;BME280;45241;49.768;8.636;2022-09-12T10:31:42;100191.75;;;26.30;57.61
59435;BME280;45241;49.768;8.636;2022-09-12T10:34:18;100178.09;;;26.82;58.84
59435;BME280;45241;49.768;8.636;2022-09-12T10:36:44;100184.13;;;26.03;59.90
59435;BME280;45241;49.768;8.636;2022-09-12T10:39:11;100186.03;;;25.84;60.02
59435;BME280;45241;49.768;8.636;2022-09-12T10:41:41;100186.41;;;27.09;59.61
59435;BME280;45241;49.768;8.636;2022-09-12T10:44:07;100168.19;;;27.27;57.45
59435;BME280;45241;49.768;8.636;2022-09-12T10:46:36;100177.16;;;25.68;59.91
59435;BME280;45241;49.768;8.636;2022-09-12T10:49:12;100169.31;;;26.61;59.02
59435;BME280;45241;49.768;8.636;2022-09-12T10:51:37;100172.97;;;26.37;60.62
59435;BME280;45241;49.768;8.636;2022-09-12T10:54:03;100158.53;;;27.16;56.39
59435;BME280;45241;49.768;8.636;2022-09-12T10:56:31;100150.47;;;27.19;57.75
59435;BME280;45241;49.768;8.636;2022-09-12T11:06:23;100143.53;;;27.22;55.23
59435;BME280;45241;49.768;8.636;2022-09-12T11:08:56;100143.31;;;26.34;56.95
59435;BME280;45241;49.768;8.636;2022-09-12T11:14:20;100145.19;;;27.78;55.35
59435;BME280;45241;49.768;8.636;2022-09-12T11:19:34;100136.81;;;27.97;53.12
59435;BME280;45241;49.768;8.636;2022-09-12T11:22:08;100136.28;;;27.40;53.69
59435;BME280;45241;49.768;8.636;2022-09-12T11:27:26;100138.31;;;27.07;52.88
59435;BME280;45241;49.768;8.636;2022-09-12T11:30:06;100141.19;;;27.98;52.41
59435;BME280;45241;49.768;8.636;2022-09-12T11:35:21;100132.38;;;27.60;52.13
59435;BME280;45241;49.768;8.636;2022-09-12T11:40:46;100137.50;;;29.28;52.77
59435;BME280;45241;49.768;8.636;2022-09-12T11:45:45;100120.84;;;29.11;52.12
59435;BME280;45241;49.768;8.636;2022-09-12T11:48:13;100116.63;;;28.82;49.96
59435;BME280;45241;49.768;8.636;2022-09-12T11:50:40;100119.41;;;29.53;50.79
59435;BME280;45241;49.768;8.636;2022-09-12T11:53:49;100121.50;;;29.47;51.27
59435;BME280;45241;49.768;8.636;2022-09-12T11:55:56;100115.03;;;29.52;49.86
59435;BME280;45241;49.768;8.636;2022-09-12T11:58:23;100108.03;;;29.15;49.54
59435;BME280;45241;49.768;8.636;2022-09-12T12:00:50;100116.00;;;29.56;48.32
59435;BME280;45241;49.768;8.636;2022-09-12T12:03:31;100113.22;;;29.39;48.71
59435;BME280;45241;49.768;8.636;2022-09-12T12:08:30;100109.41;;;28.50;47.40
59435;BME280;45241;49.768;8.636;2022-09-12T12:10:59;100104.81;;;29.61;48.43
59435;BME280;45241;49.768;8.636;2022-09-12T12:13:26;100099.78;;;27.89;48.11
59435;BME280;45241;49.768;8.636;2022-09-12T12:15:57;100097.50;;;28.41;47.85
59435;BME280;45241;49.768;8.636;2022-09-12T12:18:27;100098.56;;;29.07;46.33
59435;BME280;45241;49.768;8.636;2022-09-12T12:20:53;100095.44;;;28.47;48.39
59435;BME280;45241;49.768;8.636;2022-09-12T12:25:51;100092.19;;;30.81;47.06
59435;BME280;45241;49.768;8.636;2022-09-12T12:31:01;100075.47;;;29.34;45.78
59435;BME280;45241;49.768;8.636;2022-09-12T12:40:51;100076.91;;;29.80;46.53
59435;BME280;45241;49.768;8.636;2022-09-12T12:43:30;100073.06;;;30.07;46.01
59435;BME280;45241;49.768;8.636;2022-09-12T12:46:02;100058.53;;;30.62;45.38
59435;BME280;45241;49.768;8.636;2022-09-12T12:48:29;100055.38;;;28.71;46.91
59435;BME280;45241;49.768;8.636;2022-09-12T12:51:15;100050.78;;;28.67;46.49
59435;BME280;45241;49.768;8.636;2022-09-12T12:53:45;100052.84;;;29.72;47.37
59435;BME280;45241;49.768;8.636;2022-09-12T12:56:33;100056.13;;;30.26;45.62
59435;BME280;45241;49.768;8.636;2022-09-12T12:58:57;100052.25;;;30.18;44.38
59435;BME280;45241;49.768;8.636;2022-09-12T13:01:23;100037.84;;;29.07;44.96
59435;BME280;45241;49.768;8.636;2022-09-12T13:03:53;100043.69;;;28.97;46.64
59435;BME280;45241;49.768;8.636;2022-09-12T13:09:02;100035.00;;;31.61;44.79
59435;BME280;45241;49.768;8.636;2022-09-12T13:11:30;100025.78;;;30.81;44.49
59435;BME280;45241;49.768;8.636;2022-09-12T13:13:57;100031.59;;;30.07;44.99
59435;BME280;45241;49.768;8.636;2022-09-12T13:16:30;100024.34;;;28.66;45.52
59435;BME280;45241;49.768;8.636;2022-09-12T13:18:56;100031.16;;;28.68;46.32
59435;BME280;45241;49.768;8.636;2022-09-12T13:21:26;100026.13;;;28.93;43.45
59435;BME280;45241;49.768;8.636;2022-09-12T13:23:58;100018.28;;;28.55;45.22
59435;BME280;45241;49.768;8.636;2022-09-12T13:26:24;100020.47;;;29.46;45.23
59435;BME280;45241;49.768;8.636;2022-09-12T13:29:07;100019.97;;;30.65;44.29
59435;BME280;45241;49.768;8.636;2022-09-12T13:31:33;100013.03;;;31.27;43.54
59435;BME280;45241;49.768;8.636;2022-09-12T13:33:58;100012.72;;;31.79;42.10
59435;BME280;45241;49.768;8.636;2022-09-12T13:39:22;100000.06;;;32.44;42.81
59435;BME280;45241;49.768;8.636;2022-09-12T13:44:16;100002.63;;;31.53;42.45
59435;BME280;45241;49.768;8.636;2022-09-12T13:46:42;100000.06;;;31.90;41.78
59435;BME280;45241;49.768;8.636;2022-09-12T13:49:31;100008.78;;;31.59;42.84
59435;BME280;45241;49.768;8.636;2022-09-12T13:52:39;100000.06;;;31.48;41.75
59435;BME280;45241;49.768;8.636;2022-09-12T13:54:39;99998.69;;;32.38;39.53
59435;BME280;45241;49.768;8.636;2022-09-12T13:57:04;99992.97;;;30.54;41.81
59435;BME280;45241;49.768;8.636;2022-09-12T13:59:39;99992.41;;;29.05;45.52
59435;BME280;45241;49.768;8.636;2022-09-12T14:02:18;99989.44;;;28.84;45.34
59435;BME280;45241;49.768;8.636;2022-09-12T14:04:46;99982.66;;;29.81;44.42
59435;BME280;45241;49.768;8.636;2022-09-12T14:07:30;99974.25;;;30.68;43.22
59435;BME280;45241;49.768;8.636;2022-09-12T14:09:56;99976.44;;;31.42;42.87
59435;BME280;45241;49.768;8.636;2022-09-12T14:12:23;99976.34;;;32.01;39.90
59435;BME280;45241;49.768;8.636;2022-09-12T14:14:49;99981.25;;;32.49;41.74
59435;BME280;45241;49.768;8.636;2022-09-12T14:17:16;99971.69;;;33.20;38.66
59435;BME280;45241;49.768;8.636;2022-09-12T14:19:42;99968.38;;;33.15;38.03
59435;BME280;45241;49.768;8.636;2022-09-12T14:22:09;99974.34;;;33.53;38.87
59435;BME280;45241;49.768;8.636;2022-09-12T14:24:36;99964.66;;;32.86;37.91
59435;BME280;45241;49.768;8.636;2022-09-12T14:27:01;99973.09;;;33.14;38.39
59435;BME280;45241;49.768;8.636;2022-09-12T14:29:28;99962.66;;;34.60;38.28
59435;BME280;45241;49.768;8.636;2022-09-12T14:32:01;99962.75;;;31.67;38.59
59435;BME280;45241;49.768;8.636;2022-09-12T14:34:27;99954.66;;;31.82;38.76
59435;BME280;45241;49.768;8.636;2022-09-12T14:36:53;99957.47;;;31.95;39.66
59435;BME280;45241;49.768;8.636;2022-09-12T14:41:46;99959.97;;;32.20;39.58
59435;BME280;45241;49.768;8.636;2022-09-12T14:44:23;99955.03;;;33.45;38.86
59435;BME280;45241;49.768;8.636;2022-09-12T14:46:50;99944.25;;;31.38;39.57
59435;BME280;45241;49.768;8.636;2022-09-12T14:49:17;99951.69;;;33.79;39.97